sensor_id;sensor_type;location;lat;lon;timestamp;P1;durP1;ratioP1;P2;durP2;ratioP2
72205;SDS011;60111;48.286;7.812;2022-09-21T00:01:14;3.40;;;2.10;;
72205;SDS011;60111;48.286;7.812;2022-09-21T00:03:50;5.40;;;2.33;;
72205;SDS011;60111;48.286;7.812;2022-09-21T00:06:26;3.80;;;2.17;;
72205;SDS011;60111;48.286;7.812;2022-09-21T00:09:00;3.90;;;1.92;;
72205;SDS011;60111;48.286;7.812;2022-09-21T00:11:34;3.40;;;2.08;;
72205;SDS011;60111;48.286;7.812;2022-09-21T00:14:09;2.35;;;2.10;;
72205;SDS011;60111;48.286;7.812;2022-09-21T00:16:43;5.10;;;2.30;;
72205;SDS011;60111;48.286;7.812;2022-09-21T00:19:16;6.67;;;2.13;;
72205;SDS011;60111;48.286;7.812;2022-09-21T00:21:52;4.22;;;2.20;;
72205;SDS011;60111;48.286;7.812;2022-09-21T00:24:26;3.52;;;2.35;;
72205;SDS011;60111;48.286;7.812;2022-09-21T00:26:59;6.28;;;2.33;;
72205;SDS011;60111;48.286;7.812;2022-09-21T00:29:31;5.92;;;2.40;;
72205;SDS011;60111;48.286;7.812;2022-09-21T00:32:05;5.53;;;2.17;;
72205;SDS011;60111;48.286;7.812;2022-09-21T00:34:37;3.58;;;2.40;;
72205;SDS011;60111;48.286;7.812;2022-09-21T00:37:10;3.70;;;2.50;;
72205;SDS011;60111;48.286;7.812;2022-09-21T00:39:42;7.03;;;3.95;;
72205;SDS011;60111;48.286;7.812;2022-09-21T00:42:23;5.95;;;3.50;;
72205;SDS011;60111;48.286;7.812;2022-09-21T00:45:00;9.87;;;4.30;;
72205;SDS011;60111;48.286;7.812;2022-09-21T00:47:43;9.48;;;3.87;;
72205;SDS011;60111;48.286;7.812;2022-09-21T00:50:15;10.98;;;3.67;;
72205;SDS011;60111;48.286;7.812;2022-09-21T00:52:52;6.03;;;2.90;;
72205;SDS011;60111;48.286;7.812;2022-09-21T00:58:04;3.33;;;2.50;;
72205;SDS011;60111;48.286;7.812;2022-09-21T01:00:39;6.30;;;2.43;;
72205;SDS011;60111;48.286;7.812;2022-09-21T01:03:12;4.95;;;2.47;;
72205;SDS011;60111;48.286;7.812;2022-09-21T01:05:45;4.53;;;2.45;;
72205;SDS011;60111;48.286;7.812;2022-09-21T01:08:17;3.35;;;2.25;;
72205;SDS011;60111;48.286;7.812;2022-09-21T01:16:14;4.35;;;2.33;;
72205;SDS011;60111;48.286;7.812;2022-09-21T01:18:50;3.08;;;2.20;;
72205;SDS011;60111;48.286;7.812;2022-09-21T01:21:36;5.03;;;2.72;;
72205;SDS011;60111;48.286;7.812;2022-09-21T01:32:29;10.48;;;3.22;;
72205;SDS011;60111;48.286;7.812;2022-09-21T01:35:27;8.88;;;3.08;;
72205;SDS011;60111;48.286;7.812;2022-09-21T01:37:58;7.33;;;3.00;;
72205;SDS011;60111;48.286;7.812;2022-09-21T01:40:43;6.97;;;3.00;;
72205;SDS011;60111;48.286;7.812;2022-09-21T01:43:13;4.58;;;2.55;;
72205;SDS011;60111;48.286;7.812;2022-09-21T01:45:48;5.05;;;2.72;;
72205;SDS011;60111;48.286;7.812;2022-09-21T01:48:24;4.50;;;2.50;;
72205;SDS011;60111;48.286;7.812;2022-09-21T01:50:57;7.72;;;2.60;;
72205;SDS011;60111;48.286;7.812;2022-09-21T01:53:33;5.62;;;2.47;;
72205;SDS011;60111;48.286;7.812;2022-09-21T01:56:18;4.95;;;2.47;;
72205;SDS011;60111;48.286;7.812;2022-09-21T02:02:03;5.03;;;2.15;;
72205;SDS011;60111;48.286;7.812;2022-09-21T02:04:32;3.58;;;2.17;;
72205;SDS011;60111;48.286;7.812;2022-09-21T02:07:06;3.35;;;2.37;;
72205;SDS011;60111;48.286;7.812;2022-09-21T02:09:39;4.27;;;2.27;;
72205;SDS011;60111;48.286;7.812;2022-09-21T02:12:12;5.45;;;2.00;;
72205;SDS011;60111;48.286;7.812;2022-09-21T02:14:44;2.50;;;2.05;;
72205;SDS011;60111;48.286;7.812;2022-09-21T02:28:27;3.17;;;1.92;;
72205;SDS011;60111;48.286;7.812;2022-09-21T02:31:11;3.00;;;2.05;;
72205;SDS011;60111;48.286;7.812;2022-09-21T02:33:46;5.58;;;2.55;;
72205;SDS011;60111;48.286;7.812;2022-09-21T02:36:22;3.37;;;2.60;;
72205;SDS011;60111;48.286;7.812;2022-09-21T02:39:02;3.77;;;2.05;;
72205;SDS011;60111;48.286;7.812;2022-09-21T02:41:58;4.58;;;2.60;;
72205;SDS011;60111;48.286;7.812;2022-09-21T02:44:37;4.00;;;2.45;;
72205;SDS011;60111;48.286;7.812;2022-09-21T02:47:12;4.75;;;2.70;;
72205;SDS011;60111;48.286;7.812;2022-09-21T02:49:53;5.17;;;2.70;;
72205;SDS011;60111;48.286;7.812;2022-09-21T02:52:28;5.30;;;2.83;;
72205;SDS011;60111;48.286;7.812;2022-09-21T02:55:03;7.53;;;2.85;;
72205;SDS011;60111;48.286;7.812;2022-09-21T02:57:37;3.25;;;2.55;;
72205;SDS011;60111;48.286;7.812;2022-09-21T03:00:11;4.62;;;2.67;;
72205;SDS011;60111;48.286;7.812;2022-09-21T03:02:45;4.83;;;2.77;;
72205;SDS011;60111;48.286;7.812;2022-09-21T03:05:17;6.55;;;2.72;;
72205;SDS011;60111;48.286;7.812;2022-09-21T03:07:50;5.10;;;2.60;;
72205;SDS011;60111;48.286;7.812;2022-09-21T03:10:23;3.85;;;2.52;;
72205;SDS011;60111;48.286;7.812;2022-09-21T03:12:56;6.83;;;3.10;;
72205;SDS011;60111;48.286;7.812;2022-09-21T03:15:31;5.75;;;2.67;;
72205;SDS011;60111;48.286;7.812;2022-09-21T03:18:06;4.55;;;2.65;;
72205;SDS011;60111;48.286;7.812;2022-09-21T03:20:46;5.80;;;2.40;;
72205;SDS011;60111;48.286;7.812;2022-09-21T03:23:18;4.87;;;2.47;;
72205;SDS011;60111;48.286;7.812;2022-09-21T03:25:51;4.55;;;2.62;;
72205;SDS011;60111;48.286;7.812;2022-09-21T03:30:57;6.25;;;2.70;;
72205;SDS011;60111;48.286;7.812;2022-09-21T03:33:30;5.37;;;2.92;;
72205;SDS011;60111;48.286;7.812;2022-09-21T03:36:03;6.13;;;2.90;;
72205;SDS011;60111;48.286;7.812;2022-09-21T03:38:37;5.08;;;2.75;;
72205;SDS011;60111;48.286;7.812;2022-09-21T03:41:10;5.40;;;2.80;;
72205;SDS011;60111;48.286;7.812;2022-09-21T03:46:16;6.10;;;2.80;;
72205;SDS011;60111;48.286;7.812;2022-09-21T03:48:49;5.90;;;2.67;;
72205;SDS011;60111;48.286;7.812;2022-09-21T03:51:22;3.87;;;2.90;;
72205;SDS011;60111;48.286;7.812;2022-09-21T03:53:55;5.75;;;2.60;;
72205;SDS011;60111;48.286;7.812;2022-09-21T03:56:28;6.65;;;3.08;;
72205;SDS011;60111;48.286;7.812;2022-09-21T03:59:00;4.50;;;2.70;;
72205;SDS011;60111;48.286;7.812;2022-09-21T04:01:33;7.27;;;3.07;;
72205;SDS011;60111;48.286;7.812;2022-09-21T04:04:06;3.22;;;2.52;;
72205;SDS011;60111;48.286;7.812;2022-09-21T04:06:38;3.50;;;2.47;;
72205;SDS011;60111;48.286;7.812;2022-09-21T04:09:11;3.33;;;2.60;;
72205;SDS011;60111;48.286;7.812;2022-09-21T04:11:44;6.33;;;2.75;;
72205;SDS011;60111;48.286;7.812;2022-09-21T04:14:18;6.23;;;2.57;;
72205;SDS011;60111;48.286;7.812;2022-09-21T04:16:52;7.10;;;3.25;;
72205;SDS011;60111;48.286;7.812;2022-09-21T04:19:25;5.53;;;3.00;;
72205;SDS011;60111;48.286;7.812;2022-09-21T04:21:57;3.15;;;2.80;;
72205;SDS011;60111;48.286;7.812;2022-09-21T04:24:30;3.58;;;2.70;;
72205;SDS011;60111;48.286;7.812;2022-09-21T04:27:03;6.22;;;3.02;;
72205;SDS011;60111;48.286;7.812;2022-09-21T04:29:36;4.87;;;2.67;;
72205;SDS011;60111;48.286;7.812;2022-09-21T04:32:09;4.22;;;2.80;;
72205;SDS011;60111;48.286;7.812;2022-09-21T04:34:42;4.40;;;3.13;;
72205;SDS011;60111;48.286;7.812;2022-09-21T04:37:15;4.85;;;3.12;;
72205;SDS011;60111;48.286;7.812;2022-09-21T04:39:48;4.62;;;3.05;;
72205;SDS011;60111;48.286;7.812;2022-09-21T04:42:22;3.98;;;2.87;;
72205;SDS011;60111;48.286;7.812;2022-09-21T04:44:55;4.97;;;3.63;;
72205;SDS011;60111;48.286;7.812;2022-09-21T04:47:30;6.50;;;3.20;;
72205;SDS011;60111;48.286;7.812;2022-09-21T04:50:03;5.87;;;2.90;;
72205;SDS011;60111;48.286;7.812;2022-09-21T04:52:36;4.08;;;3.05;;
72205;SDS011;60111;48.286;7.812;2022-09-21T04:55:09;4.37;;;2.87;;
72205;SDS011;60111;48.286;7.812;2022-09-21T04:57:41;3.90;;;3.00;;
72205;SDS011;60111;48.286;7.812;2022-09-21T05:00:14;6.95;;;3.05;;
72205;SDS011;60111;48.286;7.812;2022-09-21T05:02:47;5.78;;;3.02;;
72205;SDS011;60111;48.286;7.812;2022-09-21T05:05:21;4.00;;;3.25;;
72205;SDS011;60111;48.286;7.812;2022-09-21T05:07:54;5.22;;;3.02;;
72205;SDS011;60111;48.286;7.812;2022-09-21T05:10:26;4.95;;;3.77;;
72205;SDS011;60111;48.286;7.812;2022-09-21T05:13:00;8.27;;;4.70;;
72205;SDS011;60111;48.286;7.812;2022-09-21T05:15:32;7.70;;;4.43;;
72205;SDS011;60111;48.286;7.812;2022-09-21T05:20:39;7.95;;;4.67;;
72205;SDS011;60111;48.286;7.812;2022-09-21T05:23:11;6.20;;;4.87;;
72205;SDS011;60111;48.286;7.812;2022-09-21T05:25:44;5.50;;;4.65;;
72205;SDS011;60111;48.286;7.812;2022-09-21T05:28:16;6.40;;;4.87;;
72205;SDS011;60111;48.286;7.812;2022-09-21T05:31:02;8.30;;;4.57;;
72205;SDS011;60111;48.286;7.812;2022-09-21T05:33:31;9.35;;;4.87;;
72205;SDS011;60111;48.286;7.812;2022-09-21T05:36:49;8.03;;;5.07;;
72205;SDS011;60111;48.286;7.812;2022-09-21T05:39:01;13.40;;;5.45;;
72205;SDS011;60111;48.286;7.812;2022-09-21T05:41:34;10.68;;;5.40;;
72205;SDS011;60111;48.286;7.812;2022-09-21T05:44:09;6.03;;;4.70;;
72205;SDS011;60111;48.286;7.812;2022-09-21T05:46:49;7.50;;;5.28;;
72205;SDS011;60111;48.286;7.812;2022-09-21T05:52:15;11.70;;;5.95;;
72205;SDS011;60111;48.286;7.812;2022-09-21T05:55:02;7.90;;;5.15;;
72205;SDS011;60111;48.286;7.812;2022-09-21T05:57:54;9.73;;;5.62;;
72205;SDS011;60111;48.286;7.812;2022-09-21T06:00:38;8.27;;;5.13;;
72205;SDS011;60111;48.286;7.812;2022-09-21T06:05:51;7.58;;;4.80;;
72205;SDS011;60111;48.286;7.812;2022-09-21T06:08:24;12.58;;;5.75;;
72205;SDS011;60111;48.286;7.812;2022-09-21T06:10:57;9.88;;;5.80;;
72205;SDS011;60111;48.286;7.812;2022-09-21T06:13:30;10.13;;;5.50;;
72205;SDS011;60111;48.286;7.812;2022-09-21T06:16:02;8.33;;;5.20;;
72205;SDS011;60111;48.286;7.812;2022-09-21T06:18:39;9.35;;;5.45;;
72205;SDS011;60111;48.286;7.812;2022-09-21T06:21:12;9.98;;;5.37;;
72205;SDS011;60111;48.286;7.812;2022-09-21T06:23:44;8.85;;;5.60;;
72205;SDS011;60111;48.286;7.812;2022-09-21T06:26:17;6.60;;;5.30;;
72205;SDS011;60111;48.286;7.812;2022-09-21T06:28:50;9.13;;;5.80;;
72205;SDS011;60111;48.286;7.812;2022-09-21T06:31:23;11.10;;;6.10;;
72205;SDS011;60111;48.286;7.812;2022-09-21T06:33:56;13.43;;;6.55;;
72205;SDS011;60111;48.286;7.812;2022-09-21T06:36:29;11.57;;;6.70;;
72205;SDS011;60111;48.286;7.812;2022-09-21T06:39:02;11.60;;;6.58;;
72205;SDS011;60111;48.286;7.812;2022-09-21T06:41:34;11.90;;;6.87;;
72205;SDS011;60111;48.286;7.812;2022-09-21T06:44:10;17.70;;;7.20;;
72205;SDS011;60111;48.286;7.812;2022-09-21T06:46:42;10.95;;;6.03;;
72205;SDS011;60111;48.286;7.812;2022-09-21T06:49:15;7.55;;;5.90;;
72205;SDS011;60111;48.286;7.812;2022-09-21T06:51:48;8.23;;;5.65;;
72205;SDS011;60111;48.286;7.812;2022-09-21T06:54:20;9.63;;;5.95;;
72205;SDS011;60111;48.286;7.812;2022-09-21T06:56:54;5.50;;;4.60;;
72205;SDS011;60111;48.286;7.812;2022-09-21T06:59:26;9.05;;;6.15;;
72205;SDS011;60111;48.286;7.812;2022-09-21T07:01:59;10.80;;;5.72;;
72205;SDS011;60111;48.286;7.812;2022-09-21T07:04:32;8.65;;;6.00;;
72205;SDS011;60111;48.286;7.812;2022-09-21T07:07:04;11.80;;;5.60;;
72205;SDS011;60111;48.286;7.812;2022-09-21T07:09:37;10.50;;;5.50;;
72205;SDS011;60111;48.286;7.812;2022-09-21T07:12:09;8.00;;;5.47;;
72205;SDS011;60111;48.286;7.812;2022-09-21T07:14:43;7.53;;;5.80;;
72205;SDS011;60111;48.286;7.812;2022-09-21T07:17:16;6.95;;;5.40;;
72205;SDS011;60111;48.286;7.812;2022-09-21T07:19:49;10.05;;;5.42;;
72205;SDS011;60111;48.286;7.812;2022-09-21T07:22:22;8.95;;;5.45;;
72205;SDS011;60111;48.286;7.812;2022-09-21T07:24:55;6.67;;;5.57;;
72205;SDS011;60111;48.286;7.812;2022-09-21T07:27:28;10.10;;;6.33;;
72205;SDS011;60111;48.286;7.812;2022-09-21T07:32:34;10.15;;;5.87;;
72205;SDS011;60111;48.286;7.812;2022-09-21T07:35:07;11.73;;;5.65;;
72205;SDS011;60111;48.286;7.812;2022-09-21T07:37:40;10.90;;;5.58;;
72205;SDS011;60111;48.286;7.812;2022-09-21T07:40:12;6.47;;;5.15;;
72205;SDS011;60111;48.286;7.812;2022-09-21T07:42:45;8.23;;;5.10;;
72205;SDS011;60111;48.286;7.812;2022-09-21T07:45:18;11.50;;;5.25;;
72205;SDS011;60111;48.286;7.812;2022-09-21T07:47:50;7.67;;;5.25;;
72205;SDS011;60111;48.286;7.812;2022-09-21T07:50:26;7.92;;;4.80;;
72205;SDS011;60111;48.286;7.812;2022-09-21T07:52:59;7.92;;;5.17;;
72205;SDS011;60111;48.286;7.812;2022-09-21T07:55:33;9.13;;;5.20;;
72205;SDS011;60111;48.286;7.812;2022-09-21T07:58:05;6.97;;;4.85;;
72205;SDS011;60111;48.286;7.812;2022-09-21T08:00:56;10.90;;;5.22;;
72205;SDS011;60111;48.286;7.812;2022-09-21T08:03:29;7.27;;;4.77;;
72205;SDS011;60111;48.286;7.812;2022-09-21T08:06:01;8.70;;;4.47;;
72205;SDS011;60111;48.286;7.812;2022-09-21T08:08:34;10.82;;;5.15;;
72205;SDS011;60111;48.286;7.812;2022-09-21T08:11:11;6.53;;;4.55;;
72205;SDS011;60111;48.286;7.812;2022-09-21T08:13:45;11.45;;;4.85;;
72205;SDS011;60111;48.286;7.812;2022-09-21T08:16:18;5.30;;;4.43;;
72205;SDS011;60111;48.286;7.812;2022-09-21T08:18:50;9.05;;;4.78;;
72205;SDS011;60111;48.286;7.812;2022-09-21T08:21:23;11.45;;;4.58;;
72205;SDS011;60111;48.286;7.812;2022-09-21T08:23:56;8.70;;;3.62;;
72205;SDS011;60111;48.286;7.812;2022-09-21T08:26:29;11.12;;;4.50;;
72205;SDS011;60111;48.286;7.812;2022-09-21T08:29:02;7.25;;;3.85;;
72205;SDS011;60111;48.286;7.812;2022-09-21T08:31:36;7.45;;;3.60;;
72205;SDS011;60111;48.286;7.812;2022-09-21T08:34:08;12.47;;;3.60;;
72205;SDS011;60111;48.286;7.812;2022-09-21T08:36:41;6.17;;;3.50;;
72205;SDS011;60111;48.286;7.812;2022-09-21T08:39:14;10.32;;;4.12;;
72205;SDS011;60111;48.286;7.812;2022-09-21T08:44:56;7.62;;;3.58;;
72205;SDS011;60111;48.286;7.812;2022-09-21T08:47:39;6.00;;;3.60;;
72205;SDS011;60111;48.286;7.812;2022-09-21T08:52:59;7.20;;;4.03;;
72205;SDS011;60111;48.286;7.812;2022-09-21T08:55:30;9.45;;;4.45;;
72205;SDS011;60111;48.286;7.812;2022-09-21T08:58:05;8.70;;;3.60;;
72205;SDS011;60111;48.286;7.812;2022-09-21T09:00:55;7.93;;;3.60;;
72205;SDS011;60111;48.286;7.812;2022-09-21T09:06:19;11.08;;;3.58;;
72205;SDS011;60111;48.286;7.812;2022-09-21T09:15:05;6.00;;;3.53;;
72205;SDS011;60111;48.286;7.812;2022-09-21T09:20:39;7.47;;;3.72;;
72205;SDS011;60111;48.286;7.812;2022-09-21T09:23:28;8.57;;;4.40;;
72205;SDS011;60111;48.286;7.812;2022-09-21T09:26:03;9.78;;;3.83;;
72205;SDS011;60111;48.286;7.812;2022-09-21T09:28:40;5.80;;;3.77;;
72205;SDS011;60111;48.286;7.812;2022-09-21T09:31:27;7.65;;;3.08;;
72205;SDS011;60111;48.286;7.812;2022-09-21T09:34:17;5.08;;;3.47;;
72205;SDS011;60111;48.286;7.812;2022-09-21T09:39:27;5.83;;;3.47;;
72205;SDS011;60111;48.286;7.812;2022-09-21T09:50:44;7.53;;;4.60;;
72205;SDS011;60111;48.286;7.812;2022-09-21T09:53:20;8.03;;;3.30;;
72205;SDS011;60111;48.286;7.812;2022-09-21T09:55:56;12.43;;;2.98;;
72205;SDS011;60111;48.286;7.812;2022-09-21T09:58:36;6.53;;;2.90;;
72205;SDS011;60111;48.286;7.812;2022-09-21T10:01:35;5.22;;;2.90;;
72205;SDS011;60111;48.286;7.812;2022-09-21T10:04:14;9.90;;;2.95;;
72205;SDS011;60111;48.286;7.812;2022-09-21T10:06:48;4.95;;;2.90;;
72205;SDS011;60111;48.286;7.812;2022-09-21T10:12:03;6.58;;;2.30;;
72205;SDS011;60111;48.286;7.812;2022-09-21T10:14:38;10.08;;;2.40;;
72205;SDS011;60111;48.286;7.812;2022-09-21T10:17:15;5.35;;;2.50;;
72205;SDS011;60111;48.286;7.812;2022-09-21T10:19:57;5.80;;;2.47;;
72205;SDS011;60111;48.286;7.812;2022-09-21T10:22:37;9.10;;;2.63;;
72205;SDS011;60111;48.286;7.812;2022-09-21T10:27:41;5.60;;;2.58;;
72205;SDS011;60111;48.286;7.812;2022-09-21T10:33:28;5.55;;;2.17;;
72205;SDS011;60111;48.286;7.812;2022-09-21T10:35:50;8.98;;;2.10;;
72205;SDS011;60111;48.286;7.812;2022-09-21T10:38:25;4.62;;;2.33;;
72205;SDS011;60111;48.286;7.812;2022-09-21T10:40:58;7.30;;;2.23;;
72205;SDS011;60111;48.286;7.812;2022-09-21T10:43:32;5.67;;;2.07;;
72205;SDS011;60111;48.286;7.812;2022-09-21T10:46:06;2.80;;;1.60;;
72205;SDS011;60111;48.286;7.812;2022-09-21T10:48:39;5.47;;;2.10;;
72205;SDS011;60111;48.286;7.812;2022-09-21T10:51:24;5.33;;;1.90;;
72205;SDS011;60111;48.286;7.812;2022-09-21T10:53:53;5.10;;;2.00;;
72205;SDS011;60111;48.286;7.812;2022-09-21T10:56:26;6.78;;;1.98;;
72205;SDS011;60111;48.286;7.812;2022-09-21T10:59:09;2.85;;;1.80;;
72205;SDS011;60111;48.286;7.812;2022-09-21T11:02:07;9.00;;;2.13;;
72205;SDS011;60111;48.286;7.812;2022-09-21T11:04:51;4.67;;;2.05;;
72205;SDS011;60111;48.286;7.812;2022-09-21T11:07:32;3.40;;;1.72;;
72205;SDS011;60111;48.286;7.812;2022-09-21T11:10:15;2.17;;;1.62;;
72205;SDS011;60111;48.286;7.812;2022-09-21T11:15:50;5.00;;;1.80;;
72205;SDS011;60111;48.286;7.812;2022-09-21T11:18:47;3.92;;;1.52;;
72205;SDS011;60111;48.286;7.812;2022-09-21T11:21:31;3.05;;;1.50;;
72205;SDS011;60111;48.286;7.812;2022-09-21T11:26:58;2.05;;;1.00;;
72205;SDS011;60111;48.286;7.812;2022-09-21T11:32:20;1.10;;;0.90;;
72205;SDS011;60111;48.286;7.812;2022-09-21T11:43:19;3.00;;;0.80;;
72205;SDS011;60111;48.286;7.812;2022-09-21T11:54:54;1.43;;;0.87;;
72205;SDS011;60111;48.286;7.812;2022-09-21T12:00:28;1.52;;;0.80;;
72205;SDS011;60111;48.286;7.812;2022-09-21T12:03:19;2.67;;;0.80;;
72205;SDS011;60111;48.286;7.812;2022-09-21T12:11:39;2.03;;;1.10;;
72205;SDS011;60111;48.286;7.812;2022-09-21T12:20:02;1.60;;;0.78;;
72205;SDS011;60111;48.286;7.812;2022-09-21T12:22:40;2.77;;;0.90;;
72205;SDS011;60111;48.286;7.812;2022-09-21T12:28:01;1.50;;;0.93;;
72205;SDS011;60111;48.286;7.812;2022-09-21T12:30:32;2.70;;;0.90;;
72205;SDS011;60111;48.286;7.812;2022-09-21T12:33:30;3.33;;;1.30;;
72205;SDS011;60111;48.286;7.812;2022-09-21T12:35:47;2.50;;;0.93;;
72205;SDS011;60111;48.286;7.812;2022-09-21T12:38:26;1.90;;;0.90;;
72205;SDS011;60111;48.286;7.812;2022-09-21T12:41:04;3.30;;;0.83;;
72205;SDS011;60111;48.286;7.812;2022-09-21T12:43:40;1.30;;;0.55;;
72205;SDS011;60111;48.286;7.812;2022-09-21T12:46:22;2.15;;;1.00;;
72205;SDS011;60111;48.286;7.812;2022-09-21T12:48:55;1.07;;;0.98;;
72205;SDS011;60111;48.286;7.812;2022-09-21T12:51:32;2.87;;;1.32;;
72205;SDS011;60111;48.286;7.812;2022-09-21T12:54:55;1.10;;;0.77;;
72205;SDS011;60111;48.286;7.812;2022-09-21T12:57:01;2.15;;;1.02;;
72205;SDS011;60111;48.286;7.812;2022-09-21T13:08:07;0.80;;;0.75;;
72205;SDS011;60111;48.286;7.812;2022-09-21T13:10:59;3.03;;;0.97;;
72205;SDS011;60111;48.286;7.812;2022-09-21T13:13:35;1.80;;;0.80;;
72205;SDS011;60111;48.286;7.812;2022-09-21T13:16:21;2.67;;;0.70;;
72205;SDS011;60111;48.286;7.812;2022-09-21T13:18:45;1.80;;;0.80;;
72205;SDS011;60111;48.286;7.812;2022-09-21T13:21:23;3.00;;;0.80;;
72205;SDS011;60111;48.286;7.812;2022-09-21T13:24:03;1.65;;;0.68;;
72205;SDS011;60111;48.286;7.812;2022-09-21T13:31:54;1.00;;;0.70;;
72205;SDS011;60111;48.286;7.812;2022-09-21T13:34:34;1.77;;;0.70;;
72205;SDS011;60111;48.286;7.812;2022-09-21T13:47:54;1.70;;;0.73;;
72205;SDS011;60111;48.286;7.812;2022-09-21T13:50:39;1.65;;;0.80;;
72205;SDS011;60111;48.286;7.812;2022-09-21T13:53:20;1.17;;;0.72;;
72205;SDS011;60111;48.286;7.812;2022-09-21T13:55:58;1.85;;;0.90;;
72205;SDS011;60111;48.286;7.812;2022-09-21T13:58:43;1.57;;;0.72;;
72205;SDS011;60111;48.286;7.812;2022-09-21T14:01:19;1.20;;;0.80;;
72205;SDS011;60111;48.286;7.812;2022-09-21T14:03:55;1.87;;;0.60;;
72205;SDS011;60111;48.286;7.812;2022-09-21T14:06:33;1.17;;;0.63;;
72205;SDS011;60111;48.286;7.812;2022-09-21T14:09:19;1.15;;;0.60;;
72205;SDS011;60111;48.286;7.812;2022-09-21T14:11:58;3.98;;;0.70;;
72205;SDS011;60111;48.286;7.812;2022-09-21T14:14:36;4.37;;;0.70;;
72205;SDS011;60111;48.286;7.812;2022-09-21T14:20:25;2.12;;;0.82;;
72205;SDS011;60111;48.286;7.812;2022-09-21T14:25:50;1.95;;;0.78;;
72205;SDS011;60111;48.286;7.812;2022-09-21T14:31:18;1.17;;;0.60;;
72205;SDS011;60111;48.286;7.812;2022-09-21T14:33:59;0.50;;;0.50;;
72205;SDS011;60111;48.286;7.812;2022-09-21T14:36:38;1.60;;;0.57;;
72205;SDS011;60111;48.286;7.812;2022-09-21T14:39:18;0.57;;;0.47;;
72205;SDS011;60111;48.286;7.812;2022-09-21T14:41:48;0.60;;;0.60;;
72205;SDS011;60111;48.286;7.812;2022-09-21T14:44:26;1.07;;;0.68;;
72205;SDS011;60111;48.286;7.812;2022-09-21T14:50:01;3.33;;;0.60;;
72205;SDS011;60111;48.286;7.812;2022-09-21T14:52:40;1.30;;;0.65;;
72205;SDS011;60111;48.286;7.812;2022-09-21T14:55:31;1.12;;;0.62;;
72205;SDS011;60111;48.286;7.812;2022-09-21T15:01:17;1.52;;;0.72;;
72205;SDS011;60111;48.286;7.812;2022-09-21T15:07:46;1.62;;;1.17;;
72205;SDS011;60111;48.286;7.812;2022-09-21T15:10:20;1.30;;;1.00;;
72205;SDS011;60111;48.286;7.812;2022-09-21T15:16:16;2.00;;;0.97;;
72205;SDS011;60111;48.286;7.812;2022-09-21T15:24:53;1.00;;;0.60;;
72205;SDS011;60111;48.286;7.812;2022-09-21T15:27:29;1.37;;;0.80;;
72205;SDS011;60111;48.286;7.812;2022-09-21T15:30:06;2.40;;;0.60;;
72205;SDS011;60111;48.286;7.812;2022-09-21T15:32:55;1.22;;;0.68;;
72205;SDS011;60111;48.286;7.812;2022-09-21T15:35:30;1.15;;;0.80;;
72205;SDS011;60111;48.286;7.812;2022-09-21T15:38:23;1.77;;;0.82;;
72205;SDS011;60111;48.286;7.812;2022-09-21T15:40:45;1.50;;;0.80;;
72205;SDS011;60111;48.286;7.812;2022-09-21T15:43:18;0.75;;;0.75;;
72205;SDS011;60111;48.286;7.812;2022-09-21T15:45:59;2.30;;;1.05;;
72205;SDS011;60111;48.286;7.812;2022-09-21T15:48:35;2.20;;;1.10;;
72205;SDS011;60111;48.286;7.812;2022-09-21T15:51:45;1.92;;;0.90;;
72205;SDS011;60111;48.286;7.812;2022-09-21T15:53:58;3.52;;;0.80;;
72205;SDS011;60111;48.286;7.812;2022-09-21T15:56:36;1.00;;;0.90;;
72205;SDS011;60111;48.286;7.812;2022-09-21T15:59:16;0.88;;;0.85;;
72205;SDS011;60111;48.286;7.812;2022-09-21T16:01:51;1.70;;;1.30;;
72205;SDS011;60111;48.286;7.812;2022-09-21T16:04:23;2.50;;;1.77;;
72205;SDS011;60111;48.286;7.812;2022-09-21T16:09:38;1.27;;;0.90;;
72205;SDS011;60111;48.286;7.812;2022-09-21T16:12:58;4.50;;;1.30;;
72205;SDS011;60111;48.286;7.812;2022-09-21T16:15:25;2.90;;;1.90;;
72205;SDS011;60111;48.286;7.812;2022-09-21T16:18:02;3.62;;;2.42;;
72205;SDS011;60111;48.286;7.812;2022-09-21T16:20:44;4.42;;;2.98;;
72205;SDS011;60111;48.286;7.812;2022-09-21T16:23:19;2.20;;;1.50;;
72205;SDS011;60111;48.286;7.812;2022-09-21T16:25:56;1.82;;;1.00;;
72205;SDS011;60111;48.286;7.812;2022-09-21T16:28:34;3.47;;;1.07;;
72205;SDS011;60111;48.286;7.812;2022-09-21T16:31:23;1.83;;;1.10;;
72205;SDS011;60111;48.286;7.812;2022-09-21T16:34:22;2.08;;;1.00;;
72205;SDS011;60111;48.286;7.812;2022-09-21T16:36:57;1.10;;;0.90;;
72205;SDS011;60111;48.286;7.812;2022-09-21T16:39:32;0.90;;;0.80;;
72205;SDS011;60111;48.286;7.812;2022-09-21T16:42:04;1.90;;;0.90;;
72205;SDS011;60111;48.286;7.812;2022-09-21T16:44:38;1.60;;;0.80;;
72205;SDS011;60111;48.286;7.812;2022-09-21T16:47:19;1.98;;;1.30;;
72205;SDS011;60111;48.286;7.812;2022-09-21T16:49:51;7.95;;;3.77;;
72205;SDS011;60111;48.286;7.812;2022-09-21T16:52:30;2.38;;;1.62;;
72205;SDS011;60111;48.286;7.812;2022-09-21T16:55:03;3.10;;;1.63;;
72205;SDS011;60111;48.286;7.812;2022-09-21T16:57:41;1.75;;;1.30;;
72205;SDS011;60111;48.286;7.812;2022-09-21T17:00:16;1.93;;;1.30;;
72205;SDS011;60111;48.286;7.812;2022-09-21T17:02:50;2.40;;;1.27;;
72205;SDS011;60111;48.286;7.812;2022-09-21T17:05:23;2.67;;;1.30;;
72205;SDS011;60111;48.286;7.812;2022-09-21T17:07:57;2.52;;;1.40;;
72205;SDS011;60111;48.286;7.812;2022-09-21T17:10:31;2.08;;;1.30;;
72205;SDS011;60111;48.286;7.812;2022-09-21T17:13:05;1.33;;;1.10;;
72205;SDS011;60111;48.286;7.812;2022-09-21T17:15:44;1.40;;;1.27;;
72205;SDS011;60111;48.286;7.812;2022-09-21T17:18:14;1.25;;;1.15;;
72205;SDS011;60111;48.286;7.812;2022-09-21T17:20:47;1.12;;;1.02;;
72205;SDS011;60111;48.286;7.812;2022-09-21T17:23:19;1.60;;;1.07;;
72205;SDS011;60111;48.286;7.812;2022-09-21T17:25:54;1.37;;;1.02;;
72205;SDS011;60111;48.286;7.812;2022-09-21T17:28:27;2.25;;;1.30;;
72205;SDS011;60111;48.286;7.812;2022-09-21T17:31:02;1.73;;;1.47;;
72205;SDS011;60111;48.286;7.812;2022-09-21T17:33:36;2.20;;;1.67;;
72205;SDS011;60111;48.286;7.812;2022-09-21T17:36:12;2.95;;;2.15;;
72205;SDS011;60111;48.286;7.812;2022-09-21T17:38:48;6.33;;;3.92;;
72205;SDS011;60111;48.286;7.812;2022-09-21T17:49:28;3.00;;;1.98;;
72205;SDS011;60111;48.286;7.812;2022-09-21T17:52:01;3.08;;;2.00;;
72205;SDS011;60111;48.286;7.812;2022-09-21T17:54:52;3.37;;;2.17;;
72205;SDS011;60111;48.286;7.812;2022-09-21T17:57:31;2.77;;;2.05;;
72205;SDS011;60111;48.286;7.812;2022-09-21T18:02:42;7.00;;;4.07;;
72205;SDS011;60111;48.286;7.812;2022-09-21T18:05:29;5.95;;;2.70;;
72205;SDS011;60111;48.286;7.812;2022-09-21T18:07:59;4.73;;;1.97;;
72205;SDS011;60111;48.286;7.812;2022-09-21T18:10:32;3.40;;;2.05;;
72205;SDS011;60111;48.286;7.812;2022-09-21T18:13:23;2.52;;;1.60;;
72205;SDS011;60111;48.286;7.812;2022-09-21T18:18:45;1.70;;;1.47;;
72205;SDS011;60111;48.286;7.812;2022-09-21T18:21:19;4.77;;;2.57;;
72205;SDS011;60111;48.286;7.812;2022-09-21T18:26:49;4.20;;;2.90;;
72205;SDS011;60111;48.286;7.812;2022-09-21T18:29:26;3.37;;;2.37;;
72205;SDS011;60111;48.286;7.812;2022-09-21T18:55:28;10.10;;;6.53;;
72205;SDS011;60111;48.286;7.812;2022-09-21T18:58:03;15.30;;;10.30;;
72205;SDS011;60111;48.286;7.812;2022-09-21T19:00:36;22.30;;;14.77;;
72205;SDS011;60111;48.286;7.812;2022-09-21T19:03:11;49.48;;;30.37;;
72205;SDS011;60111;48.286;7.812;2022-09-21T19:05:50;45.10;;;28.10;;
72205;SDS011;60111;48.286;7.812;2022-09-21T19:14:14;52.88;;;34.55;;
72205;SDS011;60111;48.286;7.812;2022-09-21T19:16:54;71.55;;;45.30;;
72205;SDS011;60111;48.286;7.812;2022-09-21T19:19:31;64.35;;;40.08;;
72205;SDS011;60111;48.286;7.812;2022-09-21T19:25:28;40.03;;;25.92;;
72205;SDS011;60111;48.286;7.812;2022-09-21T19:28:20;35.45;;;22.70;;
72205;SDS011;60111;48.286;7.812;2022-09-21T19:30:52;24.00;;;15.10;;